createdAt,value
2022-09-10T00:01:37.066Z,101554.81
2022-09-10T00:04:11.610Z,101552.71
2022-09-10T00:06:39.994Z,101552.89
2022-09-10T00:09:08.157Z,101547.47
2022-09-10T00:11:39.440Z,101547.82
2022-09-10T00:14:12.169Z,101545.54
2022-09-10T00:16:41.419Z,101540.65
2022-09-10T00:19:09.554Z,101538.02
2022-09-10T00:21:38.021Z,101536.45
2022-09-10T00:24:07.056Z,101535.91
2022-09-10T00:26:40.050Z,101532.23
2022-09-10T00:29:10.742Z,101540.11
2022-09-10T00:31:40.029Z,101544.30
2022-09-10T00:34:09.337Z,101545.17
2022-09-10T00:36:40.446Z,101548.67
2022-09-10T00:39:14.580Z,101548.48
2022-09-10T00:41:44.950Z,101549.02
2022-09-10T00:44:41.674Z,101553.40
2022-09-10T00:47:19.550Z,101550.60
2022-09-10T00:49:53.333Z,101554.98
2022-09-10T00:52:21.527Z,101558.13
2022-09-10T00:54:50.150Z,101558.13
2022-09-10T00:57:22.233Z,101560.23
2022-09-10T00:59:58.237Z,101557.42
2022-09-10T01:02:26.469Z,101555.16
2022-09-10T01:04:56.333Z,101552.17
2022-09-10T01:07:29.320Z,101549.20
2022-09-10T01:10:00.114Z,101543.60
2022-09-10T01:12:39.284Z,101543.77
2022-09-10T01:15:22.236Z,101547.45
2022-09-10T01:18:03.778Z,101550.25
2022-09-10T01:20:56.776Z,101550.78
2022-09-10T01:23:27.870Z,101530.48
2022-09-10T01:26:33.323Z,101519.11
2022-09-10T01:29:04.029Z,101523.48
2022-09-10T01:31:51.094Z,101531.89
2022-09-10T01:34:24.224Z,101522.61
2022-09-10T01:36:56.443Z,101519.98
2022-09-10T01:39:26.036Z,101517.71
2022-09-10T01:41:55.841Z,101513.16
2022-09-10T01:44:47.580Z,101505.65
2022-09-10T01:47:30.045Z,101504.94
2022-09-10T01:50:24.236Z,101503.72
2022-09-10T01:53:05.354Z,101498.98
2022-09-10T01:55:42.020Z,101493.39
2022-09-10T01:58:17.210Z,101495.48
2022-09-10T02:01:03.448Z,101499.33
2022-09-10T02:03:33.267Z,101503.88
2022-09-10T02:06:03.182Z,101500.38
2022-09-10T02:08:39.415Z,101501.60
2022-09-10T02:11:12.000Z,101501.60
2022-09-10T02:13:42.941Z,101504.06
2022-09-10T02:16:31.323Z,101504.93
2022-09-10T02:19:01.710Z,101502.31
2022-09-10T02:21:32.451Z,101501.45
2022-09-10T02:24:10.154Z,101501.80
2022-09-10T02:26:41.592Z,101498.48
2022-09-10T02:29:11.652Z,101494.64
2022-09-10T02:31:40.904Z,101492.89
2022-09-10T02:34:08.982Z,101489.22
2022-09-10T02:36:37.764Z,101489.22
2022-09-10T02:39:05.934Z,101486.27
2022-09-10T02:41:35.127Z,101488.36
2022-09-10T02:44:04.947Z,101485.04
2022-09-10T02:46:33.143Z,101480.48
2022-09-10T02:49:01.187Z,101479.45
2022-09-10T02:51:31.031Z,101481.20
2022-09-10T02:53:59.784Z,101482.42
2022-09-10T02:56:27.756Z,101482.42
2022-09-10T02:58:56.233Z,101475.42
2022-09-10T03:01:24.649Z,101459.34
2022-09-10T03:04:01.286Z,101455.83
2022-09-10T03:06:30.378Z,101461.77
2022-09-10T03:08:59.780Z,101466.67
2022-09-10T03:11:28.183Z,101468.06
2022-09-10T03:13:56.386Z,101468.42
2022-09-10T03:16:24.622Z,101460.73
2022-09-10T03:18:52.776Z,101460.73
2022-09-10T03:21:25.296Z,101466.52
2022-09-10T03:23:56.890Z,101461.98
2022-09-10T03:26:27.444Z,101460.41
2022-09-10T03:28:55.668Z,101458.48
2022-09-10T03:31:27.435Z,101464.43
2022-09-10T03:33:55.641Z,101460.41
2022-09-10T03:36:23.818Z,101453.94
2022-09-10T03:38:51.989Z,101457.79
2022-09-10T03:41:20.159Z,101450.98
2022-09-10T03:43:49.480Z,101444.16
2022-09-10T03:46:17.631Z,101442.77
2022-09-10T03:48:46.121Z,101442.77
2022-09-10T03:51:15.859Z,101442.06
2022-09-10T03:53:44.144Z,101439.97
2022-09-10T03:56:12.268Z,101446.79
2022-09-10T03:58:40.818Z,101447.66
2022-09-10T04:01:09.686Z,101453.77
2022-09-10T04:03:37.942Z,101454.65
2022-09-10T04:06:10.438Z,101454.66
2022-09-10T04:08:39.567Z,101453.09
2022-09-10T04:11:10.431Z,101449.60
2022-09-10T04:13:38.697Z,101447.50
2022-09-10T04:16:07.430Z,101445.92
2022-09-10T04:18:35.923Z,101444.17
2022-09-10T04:21:04.613Z,101444.87
2022-09-10T04:23:33.436Z,101446.09
2022-09-10T04:26:15.483Z,101444.35
2022-09-10T04:28:45.672Z,101442.08
2022-09-10T04:31:14.324Z,101445.40
2022-09-10T04:33:42.822Z,101443.13
2022-09-10T04:36:12.944Z,101444.17
2022-09-10T04:38:42.252Z,101450.46
2022-09-10T04:41:15.609Z,101450.63
2022-09-10T04:43:44.246Z,101443.80
2022-09-10T04:46:12.524Z,101441.88
2022-09-10T04:48:43.330Z,101436.63
2022-09-10T04:51:17.716Z,101440.30
2022-09-10T04:53:52.475Z,101440.13
2022-09-10T04:56:23.184Z,101437.86
2022-09-10T04:58:51.934Z,101444.33
2022-09-10T05:01:20.547Z,101449.23
2022-09-10T05:03:52.501Z,101444.89
2022-09-10T05:06:20.807Z,101444.54
2022-09-10T05:08:50.845Z,101444.36
2022-09-10T05:11:21.868Z,101444.19
2022-09-10T05:13:49.829Z,101445.94
2022-09-10T05:16:21.394Z,101443.84
2022-09-10T05:18:49.489Z,101442.09
2022-09-10T05:21:18.559Z,101441.55
2022-09-10T05:23:46.926Z,101439.97
2022-09-10T05:26:15.555Z,101439.96
2022-09-10T05:28:43.681Z,101444.50
2022-09-10T05:31:16.808Z,101442.05
2022-09-10T05:33:46.416Z,101440.66
2022-09-10T05:36:14.903Z,101443.98
2022-09-10T05:38:46.015Z,101443.63
2022-09-10T05:41:15.196Z,101436.11
2022-09-10T05:43:47.850Z,101442.59
2022-09-10T05:46:16.373Z,101440.13
2022-09-10T05:48:47.561Z,101439.25
2022-09-10T05:51:16.422Z,101436.61
2022-09-10T05:53:45.207Z,101432.41
2022-09-10T05:56:13.349Z,101433.09
2022-09-10T05:58:45.244Z,101428.89
2022-09-10T06:01:15.635Z,101428.02
2022-09-10T06:03:45.417Z,101427.48
2022-09-10T06:06:13.621Z,101430.25
2022-09-10T06:08:54.059Z,101432.15
2022-09-10T06:11:36.040Z,101434.77
2022-09-10T06:14:04.045Z,101433.53
2022-09-10T06:16:33.952Z,101438.39
2022-09-10T06:19:03.259Z,101435.23
2022-09-10T06:21:31.327Z,101440.46
2022-09-10T06:23:59.396Z,101441.34
2022-09-10T06:26:29.707Z,101439.39
2022-09-10T06:29:01.068Z,101441.13
2022-09-10T06:31:29.557Z,101440.95
2022-09-10T06:33:57.927Z,101443.02
2022-09-10T06:36:29.501Z,101441.62
2022-09-10T06:38:58.248Z,101446.34
2022-09-10T06:41:27.121Z,101441.96
2022-09-10T06:44:10.287Z,101443.18
2022-09-10T06:47:35.889Z,101443.88
2022-09-10T06:49:43.389Z,101442.46
2022-09-10T06:52:12.204Z,101446.30
2022-09-10T06:54:40.554Z,101454.34
2022-09-10T06:57:30.648Z,101452.92
2022-09-10T06:59:59.028Z,101449.07
2022-09-10T07:02:27.321Z,101452.20
2022-09-10T07:04:55.410Z,101455.52
2022-09-10T07:07:23.538Z,101452.71
2022-09-10T07:09:52.084Z,101449.36
2022-09-10T07:12:21.623Z,101451.97
2022-09-10T07:14:50.205Z,101450.55
2022-09-10T07:17:21.115Z,101450.90
2022-09-10T07:19:49.154Z,101451.75
2022-09-10T07:22:24.552Z,101453.14
2022-09-10T07:24:55.398Z,101456.27
2022-09-10T07:27:29.911Z,101453.13
2022-09-10T07:29:59.209Z,101454.69
2022-09-10T07:32:27.281Z,101452.20
2022-09-10T07:35:09.275Z,101452.55
2022-09-10T07:37:39.339Z,101458.86
2022-09-10T07:40:08.550Z,101460.06
2022-09-10T07:42:37.604Z,101463.37
2022-09-10T07:45:07.324Z,101461.62
2022-09-10T07:47:36.595Z,101461.10
2022-09-10T07:50:05.724Z,101459.70
2022-09-10T07:52:34.656Z,101456.55
2022-09-10T07:55:02.883Z,101456.22
2022-09-10T07:57:31.436Z,101448.69
2022-09-10T08:00:00.941Z,101447.27
2022-09-10T08:02:44.212Z,101447.09
2022-09-10T08:05:17.152Z,101450.95
2022-09-10T08:07:45.544Z,101442.88
2022-09-10T08:10:13.702Z,101441.62
2022-09-10T08:12:42.875Z,101440.92
2022-09-10T08:15:11.632Z,101441.95
2022-09-10T08:17:40.914Z,101449.08
2022-09-10T08:20:10.151Z,101449.91
2022-09-10T08:22:39.741Z,101450.58
2022-09-10T08:25:08.706Z,101453.20
2022-09-10T08:27:37.512Z,101459.67
2022-09-10T08:30:08.092Z,101459.52
2022-09-10T08:32:36.561Z,101459.54
2022-09-10T08:35:05.976Z,101459.54
2022-09-10T08:37:34.611Z,101455.52
2022-09-10T08:40:05.565Z,101457.42
2022-09-10T08:42:46.885Z,101449.16
2022-09-10T08:45:21.141Z,101440.91
2022-09-10T08:48:06.757Z,101442.29
2022-09-10T08:50:42.109Z,101441.73
2022-09-10T08:53:44.081Z,101435.92
2022-09-10T08:56:19.935Z,101428.37
2022-09-10T08:59:00.503Z,101427.77
2022-09-10T09:01:42.882Z,101423.69
2022-09-10T09:04:35.997Z,101417.33
2022-09-10T09:07:15.562Z,101417.08
2022-09-10T09:09:44.288Z,101417.01
2022-09-10T09:12:39.410Z,101421.16
2022-09-10T09:15:25.900Z,101423.06
2022-09-10T09:18:00.830Z,101420.24
2022-09-10T09:20:45.701Z,101417.40
2022-09-10T09:23:20.213Z,101422.46
2022-09-10T09:25:59.579Z,101419.45
2022-09-10T09:28:46.778Z,101412.95
2022-09-10T09:31:28.693Z,101410.27
2022-09-10T09:34:07.367Z,101407.65
2022-09-10T09:36:46.256Z,101406.27
2022-09-10T09:39:25.636Z,101403.83
2022-09-10T09:42:21.974Z,101402.09
2022-09-10T09:45:32.295Z,101397.88
2022-09-10T09:48:00.698Z,101396.64
2022-09-10T09:50:32.000Z,101391.05
2022-09-10T09:53:00.035Z,101383.46
2022-09-10T09:55:38.964Z,101382.50
2022-09-10T09:58:22.074Z,101383.97
2022-09-10T10:00:53.224Z,101382.27
2022-09-10T10:03:33.892Z,101377.98
2022-09-10T10:06:10.605Z,101375.60
2022-09-10T10:08:41.696Z,101378.52
2022-09-10T10:11:14.534Z,101381.08
2022-09-10T10:13:44.985Z,101376.64
2022-09-10T10:16:26.916Z,101379.73
2022-09-10T10:18:54.870Z,101380.33
2022-09-10T10:21:31.840Z,101383.75
2022-09-10T10:24:01.131Z,101385.84
2022-09-10T10:26:36.436Z,101391.27
2022-09-10T10:29:07.488Z,101392.81
2022-09-10T10:31:38.982Z,101387.88
2022-09-10T10:34:09.720Z,101384.00
2022-09-10T10:36:56.416Z,101380.99
2022-09-10T10:39:42.909Z,101377.96
2022-09-10T10:42:54.309Z,101375.98
2022-09-10T10:45:37.407Z,101368.73
2022-09-10T10:48:28.652Z,101370.10
2022-09-10T10:51:05.186Z,101372.41
2022-09-10T10:54:26.021Z,101373.51
2022-09-10T10:57:00.044Z,101376.56
2022-09-10T10:59:44.996Z,101383.45
2022-09-10T11:02:22.087Z,101388.61
2022-09-10T11:04:55.355Z,101394.22
2022-09-10T11:07:33.009Z,101391.71
2022-09-10T11:10:34.212Z,101390.96
2022-09-10T11:13:25.837Z,101393.65
2022-09-10T11:16:01.413Z,101391.75
2022-09-10T11:18:50.846Z,101391.22
2022-09-10T11:21:35.001Z,101386.64
2022-09-10T11:24:16.795Z,101382.05
2022-09-10T11:26:51.293Z,101379.58
2022-09-10T11:29:44.246Z,101372.73
2022-09-10T11:32:15.415Z,101376.75
2022-09-10T11:34:58.954Z,101380.77
2022-09-10T11:37:30.907Z,101383.71
2022-09-10T11:40:11.000Z,101386.32
2022-09-10T11:42:43.885Z,101383.35
2022-09-10T11:45:41.416Z,101379.85
2022-09-10T11:48:29.237Z,101379.18
2022-09-10T11:51:13.423Z,101378.35
2022-09-10T11:53:41.761Z,101369.94
2022-09-10T11:56:21.619Z,101372.02
2022-09-10T11:59:18.249Z,101373.20
2022-09-10T12:01:52.282Z,101371.80
2022-09-10T12:04:26.164Z,101369.67
2022-09-10T12:07:02.836Z,101367.02
2022-09-10T12:09:54.488Z,101368.75
2022-09-10T12:12:35.018Z,101364.55
2022-09-10T12:15:08.821Z,101361.03
2022-09-10T12:17:42.116Z,101360.89
2022-09-10T12:20:18.768Z,101357.88
2022-09-10T12:22:53.778Z,101354.71
2022-09-10T12:25:21.801Z,101353.48
2022-09-10T12:28:01.130Z,101354.02
2022-09-10T12:30:33.426Z,101350.52
2022-09-10T12:33:13.678Z,101350.33
2022-09-10T12:35:49.950Z,101346.82
2022-09-10T12:38:46.339Z,101347.19
2022-09-10T12:41:23.115Z,101342.35
2022-09-10T12:43:55.394Z,101342.19
2022-09-10T12:46:25.781Z,101339.75
2022-09-10T12:48:56.755Z,101339.73
2022-09-10T12:51:36.607Z,101337.43
2022-09-10T12:54:04.721Z,101333.35
2022-09-10T12:56:52.905Z,101334.20
2022-09-10T12:59:32.984Z,101338.40
2022-09-10T13:02:01.526Z,101337.65
2022-09-10T13:04:35.254Z,101337.63
2022-09-10T13:07:21.553Z,101333.18
2022-09-10T13:10:07.469Z,101331.42
2022-09-10T13:12:40.645Z,101330.35
2022-09-10T13:15:24.199Z,101325.23
2022-09-10T13:17:52.136Z,101321.66
2022-09-10T13:20:20.118Z,101318.33
2022-09-10T13:23:04.421Z,101320.25
2022-09-10T13:25:51.568Z,101321.66
2022-09-10T13:28:33.054Z,101322.73
2022-09-10T13:31:08.527Z,101324.18
2022-09-10T13:34:28.996Z,101324.94
2022-09-10T13:37:12.450Z,101324.48
2022-09-10T13:40:06.429Z,101322.38
2022-09-10T13:43:05.605Z,101322.80
2022-09-10T13:45:56.576Z,101324.27
2022-09-10T13:48:30.880Z,101320.58
2022-09-10T13:51:20.636Z,101319.56
2022-09-10T13:53:49.908Z,101315.21
2022-09-10T13:56:29.630Z,101313.32
2022-09-10T13:59:02.221Z,101317.19
2022-09-10T14:01:54.028Z,101324.02
2022-09-10T14:04:45.058Z,101328.06
2022-09-10T14:07:16.026Z,101320.56
2022-09-10T14:10:06.190Z,101319.28
2022-09-10T14:12:35.797Z,101311.55
2022-09-10T14:15:06.484Z,101304.70
2022-09-10T14:17:37.131Z,101303.11
2022-09-10T14:20:18.268Z,101304.83
2022-09-10T14:22:46.619Z,101307.08
2022-09-10T14:25:36.087Z,101311.77
2022-09-10T14:28:16.650Z,101312.23
2022-09-10T14:30:46.139Z,101310.84
2022-09-10T14:33:32.910Z,101308.16
2022-09-10T14:36:16.497Z,101306.73
2022-09-10T14:38:54.092Z,101310.95
2022-09-10T14:41:26.133Z,101308.15
2022-09-10T14:44:14.757Z,101307.99
2022-09-10T14:47:12.884Z,101306.95
2022-09-10T14:49:42.226Z,101303.61
2022-09-10T14:52:12.116Z,101301.52
2022-09-10T14:54:40.706Z,101300.14
2022-09-10T14:57:14.836Z,101299.80
2022-09-10T14:59:45.301Z,101297.40
2022-09-10T15:02:23.901Z,101297.92
2022-09-10T15:04:52.255Z,101294.09
2022-09-10T15:07:20.954Z,101294.44
2022-09-10T15:09:48.962Z,101295.30
2022-09-10T15:12:22.974Z,101300.39
2022-09-10T15:14:52.094Z,101297.42
2022-09-10T15:17:20.440Z,101294.96
2022-09-10T15:19:48.822Z,101297.06
2022-09-10T15:22:23.494Z,101303.04
2022-09-10T15:25:09.067Z,101298.48
2022-09-10T15:27:38.309Z,101297.61
2022-09-10T15:30:07.350Z,101294.81
2022-09-10T15:32:35.386Z,101297.31
2022-09-10T15:35:05.360Z,101296.13
2022-09-10T15:37:33.377Z,101293.39
2022-09-10T15:40:01.550Z,101292.04
2022-09-10T15:42:30.856Z,101293.67
2022-09-10T15:44:58.919Z,101298.13
2022-09-10T15:47:27.705Z,101298.71
2022-09-10T15:49:56.472Z,101297.00
2022-09-10T15:52:24.661Z,101297.56
2022-09-10T15:54:52.732Z,101290.92
2022-09-10T15:57:20.911Z,101292.52
2022-09-10T15:59:49.677Z,101291.63
2022-09-10T16:02:18.688Z,101295.66
2022-09-10T16:04:46.759Z,101294.61
2022-09-10T16:07:14.931Z,101292.34
2022-09-10T16:09:43.835Z,101293.39
2022-09-10T16:12:12.405Z,101294.27
2022-09-10T16:14:40.368Z,101289.17
2022-09-10T16:17:10.745Z,101285.84
2022-09-10T16:19:39.275Z,101285.82
2022-09-10T16:22:08.286Z,101287.02
2022-09-10T16:24:36.339Z,101287.19
2022-09-10T16:27:04.613Z,101285.60
2022-09-10T16:29:35.666Z,101283.16
2022-09-10T16:32:03.726Z,101284.20
2022-09-10T16:34:32.219Z,101281.73
2022-09-10T16:37:00.379Z,101277.34
2022-09-10T16:39:28.448Z,101275.73
2022-09-10T16:41:56.522Z,101269.42
2022-09-10T16:44:25.025Z,101274.14
2022-09-10T16:46:53.073Z,101267.48
2022-09-10T16:49:21.343Z,101268.86
2022-09-10T16:51:49.464Z,101269.02
2022-09-10T16:54:22.510Z,101268.50
2022-09-10T16:56:51.394Z,101264.48
2022-09-10T16:59:22.739Z,101263.80
2022-09-10T17:01:52.288Z,101261.02
2022-09-10T17:04:28.953Z,101261.73
2022-09-10T17:06:58.277Z,101261.20
2022-09-10T17:09:26.705Z,101258.39
2022-09-10T17:11:55.506Z,101260.13
2022-09-10T17:14:24.680Z,101256.45
2022-09-10T17:16:53.477Z,101265.58
2022-09-10T17:19:24.062Z,101264.70
2022-09-10T17:21:55.890Z,101268.56
2022-09-10T17:24:26.489Z,101274.35
2022-09-10T17:26:55.582Z,101276.12
2022-09-10T17:29:25.906Z,101277.00
2022-09-10T17:31:55.611Z,101276.48
2022-09-10T17:34:24.829Z,101275.45
2022-09-10T17:36:53.294Z,101275.63
2022-09-10T17:39:21.572Z,101270.71
2022-09-10T17:41:50.355Z,101274.75
2022-09-10T17:44:18.325Z,101274.09
2022-09-10T17:46:46.748Z,101270.96
2022-09-10T17:49:17.008Z,101269.07
2022-09-10T17:51:46.583Z,101270.11
2022-09-10T17:54:15.441Z,101271.19
2022-09-10T17:56:43.904Z,101272.63
2022-09-10T17:59:14.425Z,101271.77
2022-09-10T18:01:43.271Z,101271.97
2022-09-10T18:04:13.094Z,101271.48
2022-09-10T18:06:41.442Z,101274.80
2022-09-10T18:09:09.985Z,101270.59
2022-09-10T18:11:40.460Z,101275.32
2022-09-10T18:14:13.548Z,101274.77
2022-09-10T18:16:42.286Z,101274.10
2022-09-10T18:19:15.432Z,101270.94
2022-09-10T18:21:45.799Z,101270.08
2022-09-10T18:24:24.282Z,101269.40
2022-09-10T18:26:57.476Z,101268.20
2022-09-10T18:29:28.442Z,101269.30
2022-09-10T18:32:00.916Z,101274.54
2022-09-10T18:34:31.148Z,101270.18
2022-09-10T18:37:01.150Z,101274.19
2022-09-10T18:39:31.546Z,101270.88
2022-09-10T18:42:01.239Z,101271.92
2022-09-10T18:44:35.319Z,101271.04
2022-09-10T18:47:08.995Z,101271.73
2022-09-10T18:49:46.564Z,101273.30
2022-09-10T18:52:14.768Z,101277.52
2022-09-10T18:54:46.621Z,101274.05
2022-09-10T18:57:14.905Z,101274.39
2022-09-10T18:59:42.894Z,101271.07
2022-09-10T19:02:13.157Z,101270.56
2022-09-10T19:05:07.293Z,101269.17
2022-09-10T19:07:29.817Z,101270.23
2022-09-10T19:09:57.882Z,101270.98
2022-09-10T19:12:26.669Z,101265.61
2022-09-10T19:14:54.609Z,101263.04
2022-09-10T19:17:22.913Z,101263.42
2022-09-10T19:19:51.089Z,101259.07
2022-09-10T19:22:19.083Z,101264.70
2022-09-10T19:24:55.795Z,101262.80
2022-09-10T19:27:24.980Z,101260.35
2022-09-10T19:29:53.918Z,101263.35
2022-09-10T19:32:22.119Z,101262.17
2022-09-10T19:34:51.477Z,101262.89
2022-09-10T19:37:21.010Z,101263.09
2022-09-10T19:39:49.470Z,101265.05
2022-09-10T19:42:18.055Z,101263.32
2022-09-10T19:44:46.538Z,101264.43
2022-09-10T19:47:14.590Z,101259.20
2022-09-10T19:49:42.583Z,101259.93
2022-09-10T19:52:11.240Z,101261.90
2022-09-10T19:54:39.332Z,101259.82
2022-09-10T19:57:07.441Z,101257.77
2022-09-10T19:59:35.779Z,101263.39
2022-09-10T20:02:03.983Z,101264.09
2022-09-10T20:04:33.254Z,101263.77
2022-09-10T20:07:01.731Z,101268.34
2022-09-10T20:09:29.904Z,101268.54
2022-09-10T20:11:57.971Z,101269.95
2022-09-10T20:14:26.045Z,101267.67
2022-09-10T20:16:54.946Z,101263.98
2022-09-10T20:19:23.234Z,101260.66
2022-09-10T20:21:51.795Z,101259.25
2022-09-10T20:24:19.864Z,101255.92
2022-09-10T20:26:49.264Z,101255.23
2022-09-10T20:29:19.504Z,101253.65
2022-09-10T20:31:48.805Z,101252.95
2022-09-10T20:34:20.351Z,101252.77
2022-09-10T20:36:53.940Z,101253.65
2022-09-10T20:39:27.126Z,101256.29
2022-09-10T20:41:55.202Z,101256.45
2022-09-10T20:44:23.697Z,101252.08
2022-09-10T20:46:52.160Z,101254.00
2022-09-10T20:49:20.843Z,101249.63
2022-09-10T20:51:48.811Z,101248.42
2022-09-10T20:54:18.625Z,101248.43
2022-09-10T20:56:47.001Z,101251.41
2022-09-10T20:59:17.041Z,101249.15
2022-09-10T21:01:47.073Z,101246.38
2022-09-10T21:04:15.263Z,101250.42
2022-09-10T21:06:43.394Z,101247.11
2022-09-10T21:09:12.732Z,101245.55
2022-09-10T21:11:41.159Z,101249.60
2022-09-10T21:14:11.756Z,101246.48
2022-09-10T21:16:47.443Z,101248.58
2022-09-10T21:19:17.352Z,101248.44
2022-09-10T21:21:48.873Z,101240.03
2022-09-10T21:24:19.735Z,101237.79
2022-09-10T21:26:49.299Z,101233.61
2022-09-10T21:29:19.704Z,101231.17
2022-09-10T21:31:50.870Z,101230.14
2022-09-10T21:34:19.536Z,101233.13
2022-09-10T21:36:48.182Z,101232.27
2022-09-10T21:39:17.897Z,101228.92
2022-09-10T21:41:50.326Z,101225.60
2022-09-10T21:44:21.170Z,101220.16
2022-09-10T21:46:49.886Z,101220.00
2022-09-10T21:49:20.408Z,101217.73
2022-09-10T21:51:48.582Z,101214.77
2022-09-10T21:54:21.464Z,101215.64
2022-09-10T21:56:50.704Z,101214.77
2022-09-10T21:59:21.651Z,101214.09
2022-09-10T22:01:50.126Z,101212.16
2022-09-10T22:04:22.547Z,101218.29
2022-09-10T22:06:54.617Z,101213.73
2022-09-10T22:09:22.793Z,101216.18
2022-09-10T22:11:54.304Z,101216.02
2022-09-10T22:14:24.302Z,101222.33
2022-09-10T22:16:52.980Z,101221.48
2022-09-10T22:19:24.106Z,101219.55
2022-09-10T22:21:57.480Z,101215.69
2022-09-10T22:24:26.412Z,101213.95
2022-09-10T22:26:54.783Z,101213.60
2022-09-10T22:29:23.022Z,101212.90
2022-09-10T22:31:51.196Z,101208.70
2022-09-10T22:34:19.797Z,101209.91
2022-09-10T22:36:49.514Z,101211.13
2022-09-10T22:39:20.122Z,101206.57
2022-09-10T22:41:50.239Z,101208.14
2022-09-10T22:44:19.539Z,101200.42
2022-09-10T22:46:48.163Z,101202.69
2022-09-10T22:49:17.188Z,101198.85
2022-09-10T22:51:45.335Z,101201.81
2022-09-10T22:54:14.166Z,101197.27
2022-09-10T22:56:42.243Z,101193.59
2022-09-10T22:59:14.917Z,101192.20
2022-09-10T23:01:47.701Z,101188.70
2022-09-10T23:04:16.339Z,101188.91
2022-09-10T23:06:44.770Z,101191.20
2022-09-10T23:09:17.767Z,101189.81
2022-09-10T23:11:46.025Z,101186.86
2022-09-10T23:14:17.946Z,101183.71
2022-09-10T23:16:51.920Z,101178.81
2022-09-10T23:19:23.387Z,101176.18
2022-09-10T23:21:54.633Z,101173.38
2022-09-10T23:24:24.917Z,101171.98
2022-09-10T23:26:54.050Z,101170.58
2022-09-10T23:29:23.556Z,101171.13
2022-09-10T23:31:54.467Z,101165.89
2022-09-10T23:34:22.796Z,101170.79
2022-09-10T23:36:51.898Z,101169.05
2022-09-10T23:39:22.760Z,101168.34
2022-09-10T23:41:54.212Z,101177.79
2022-09-10T23:44:23.059Z,101181.46
2022-09-10T23:46:51.565Z,101180.59
2022-09-10T23:49:19.650Z,101180.06
2022-09-10T23:51:49.459Z,101174.98
2022-09-10T23:54:18.138Z,101174.11
2022-09-10T23:56:46.215Z,101172.89
2022-09-10T23:59:15.424Z,101170.81
